createdAt,value
2023-03-29T00:02:30.120Z,7.23
2023-03-29T00:04:57.706Z,7.37
2023-03-29T00:07:26.034Z,7.23
2023-03-29T00:09:53.373Z,6.83
2023-03-29T00:12:19.983Z,6.70
2023-03-29T00:14:46.504Z,6.90
2023-03-29T00:17:13.148Z,6.53
2023-03-29T00:19:40.164Z,6.97
2023-03-29T00:22:06.738Z,7.17
2023-03-29T00:24:33.447Z,6.97
2023-03-29T00:27:00.279Z,7.70
2023-03-29T00:29:26.780Z,6.50
2023-03-29T00:31:56.064Z,7.23
2023-03-29T00:34:30.951Z,6.47
2023-03-29T00:36:58.253Z,7.03
2023-03-29T00:39:26.359Z,6.83
2023-03-29T00:41:53.151Z,6.47
2023-03-29T00:44:57.379Z,6.63
2023-03-29T00:47:36.097Z,7.13
2023-03-29T00:50:22.552Z,6.47
2023-03-29T00:52:55.154Z,6.07
2023-03-29T00:55:23.667Z,5.93
2023-03-29T00:57:52.130Z,6.80
2023-03-29T01:00:20.912Z,6.10
2023-03-29T01:02:54.188Z,6.20
2023-03-29T01:05:40.573Z,5.70
2023-03-29T01:08:18.176Z,5.90
2023-03-29T01:10:51.245Z,5.60
2023-03-29T01:13:22.331Z,5.53
2023-03-29T01:15:49.035Z,5.53
2023-03-29T01:18:15.829Z,5.87
2023-03-29T01:21:14.750Z,5.10
2023-03-29T01:23:47.525Z,5.73
2023-03-29T01:26:36.797Z,5.97
2023-03-29T01:29:07.961Z,6.43
2023-03-29T01:31:42.285Z,5.40
2023-03-29T01:34:21.977Z,6.27
2023-03-29T01:36:54.759Z,6.20
2023-03-29T01:39:22.029Z,6.17
2023-03-29T01:42:00.914Z,5.50
2023-03-29T01:44:35.703Z,6.17
2023-03-29T01:47:16.269Z,6.10
2023-03-29T01:49:51.302Z,5.77
2023-03-29T01:52:23.814Z,5.60
2023-03-29T01:54:56.375Z,5.40
2023-03-29T01:57:24.987Z,5.33
2023-03-29T01:59:53.505Z,5.77
2023-03-29T02:02:21.044Z,6.03
2023-03-29T02:04:52.272Z,5.67
2023-03-29T02:07:22.649Z,5.30
2023-03-29T02:09:50.395Z,5.20
2023-03-29T02:12:17.209Z,5.70
2023-03-29T02:14:43.987Z,5.10
2023-03-29T02:17:16.712Z,5.57
2023-03-29T02:19:43.467Z,5.17
2023-03-29T02:22:12.817Z,5.30
2023-03-29T02:24:40.920Z,6.20
2023-03-29T02:27:07.701Z,5.03
2023-03-29T02:29:34.296Z,4.97
2023-03-29T02:32:11.082Z,5.73
2023-03-29T02:34:43.795Z,5.67
2023-03-29T02:37:13.013Z,5.53
2023-03-29T02:39:41.091Z,5.47
2023-03-29T02:42:08.058Z,5.83
2023-03-29T02:44:38.218Z,6.20
2023-03-29T02:47:14.189Z,5.47
2023-03-29T02:49:41.033Z,5.60
2023-03-29T02:52:14.123Z,5.03
2023-03-29T02:54:43.313Z,5.03
2023-03-29T02:57:10.961Z,4.67
2023-03-29T02:59:38.633Z,5.07
2023-03-29T03:02:05.612Z,4.90
2023-03-29T03:04:34.992Z,5.37
2023-03-29T03:07:02.250Z,5.90
2023-03-29T03:09:28.987Z,5.83
2023-03-29T03:11:55.405Z,5.30
2023-03-29T03:14:22.814Z,5.73
2023-03-29T03:16:49.797Z,5.30
2023-03-29T03:19:16.471Z,5.33
2023-03-29T03:21:43.246Z,4.97
2023-03-29T03:24:10.305Z,5.47
2023-03-29T03:26:38.220Z,5.13
2023-03-29T03:29:05.131Z,5.37
2023-03-29T03:31:33.446Z,5.73
2023-03-29T03:34:00.094Z,5.80
2023-03-29T03:36:29.444Z,5.47
2023-03-29T03:38:55.901Z,6.10
2023-03-29T03:41:22.756Z,5.33
2023-03-29T03:43:49.455Z,5.33
2023-03-29T03:46:17.140Z,5.50
2023-03-29T03:48:45.058Z,6.07
2023-03-29T03:51:11.590Z,5.27
2023-03-29T03:53:38.248Z,6.20
2023-03-29T03:56:08.981Z,5.63
2023-03-29T03:58:36.587Z,5.87
2023-03-29T04:01:03.834Z,5.70
2023-03-29T04:03:31.701Z,5.40
2023-03-29T04:06:01.699Z,5.53
2023-03-29T04:08:28.206Z,5.57
2023-03-29T04:10:56.792Z,5.83
2023-03-29T04:13:23.845Z,5.43
2023-03-29T04:15:54.060Z,5.67
2023-03-29T04:18:21.458Z,5.77
2023-03-29T04:20:48.283Z,5.70
2023-03-29T04:23:15.137Z,6.50
2023-03-29T04:25:41.668Z,6.50
2023-03-29T04:28:09.697Z,5.73
2023-03-29T04:30:36.517Z,6.10
2023-03-29T04:33:03.920Z,6.10
2023-03-29T04:35:30.477Z,6.67
2023-03-29T04:37:57.172Z,6.03
2023-03-29T04:40:23.613Z,6.20
2023-03-29T04:42:51.738Z,6.00
2023-03-29T04:45:19.054Z,6.20
2023-03-29T04:47:46.341Z,6.10
2023-03-29T04:50:13.777Z,5.70
2023-03-29T04:52:40.819Z,6.70
2023-03-29T04:55:07.955Z,7.20
2023-03-29T04:57:34.622Z,6.57
2023-03-29T05:00:01.252Z,7.20
2023-03-29T05:02:27.886Z,6.77
2023-03-29T05:04:54.908Z,6.23
2023-03-29T05:07:21.900Z,6.80
2023-03-29T05:09:48.590Z,6.30
2023-03-29T05:12:15.335Z,7.00
2023-03-29T05:14:41.789Z,6.93
2023-03-29T05:17:08.442Z,7.20
2023-03-29T05:19:36.478Z,7.43
2023-03-29T05:22:02.891Z,7.50
2023-03-29T05:24:29.801Z,7.27
2023-03-29T05:26:56.574Z,7.03
2023-03-29T05:29:23.522Z,6.73
2023-03-29T05:31:50.077Z,7.67
2023-03-29T05:34:16.504Z,6.70
2023-03-29T05:36:43.530Z,6.47
2023-03-29T05:39:10.893Z,5.90
2023-03-29T05:41:37.933Z,11.67
2023-03-29T05:44:04.474Z,8.73
2023-03-29T05:46:31.666Z,7.20
2023-03-29T05:48:58.486Z,7.30
2023-03-29T05:51:25.164Z,9.90
2023-03-29T05:53:52.133Z,7.90
2023-03-29T05:56:19.588Z,6.67
2023-03-29T05:58:49.427Z,6.80
2023-03-29T06:01:17.999Z,7.17
2023-03-29T06:03:46.151Z,6.60
2023-03-29T06:06:16.177Z,7.57
2023-03-29T06:08:43.492Z,6.57
2023-03-29T06:11:11.744Z,5.83
2023-03-29T06:13:38.926Z,6.30
2023-03-29T06:16:10.280Z,6.33
2023-03-29T06:18:38.097Z,5.97
2023-03-29T06:21:05.004Z,6.07
2023-03-29T06:23:32.001Z,7.20
2023-03-29T06:26:00.159Z,5.97
2023-03-29T06:28:26.774Z,5.53
2023-03-29T06:30:56.434Z,5.63
2023-03-29T06:33:23.180Z,5.77
2023-03-29T06:35:50.086Z,5.90
2023-03-29T06:38:16.944Z,5.90
2023-03-29T06:40:44.646Z,5.67
2023-03-29T06:43:11.274Z,6.07
2023-03-29T06:45:38.947Z,5.70
2023-03-29T06:48:06.303Z,5.73
2023-03-29T06:50:33.035Z,5.57
2023-03-29T06:53:00.019Z,5.77
2023-03-29T06:55:27.356Z,6.43
2023-03-29T06:57:54.476Z,6.37
2023-03-29T07:00:28.063Z,6.30
2023-03-29T07:02:56.473Z,5.87
2023-03-29T07:05:23.966Z,5.90
2023-03-29T07:07:53.945Z,6.67
2023-03-29T07:10:26.076Z,6.20
2023-03-29T07:12:53.008Z,6.60
2023-03-29T07:15:21.503Z,6.00
2023-03-29T07:17:48.993Z,6.23
2023-03-29T07:20:15.699Z,6.60
2023-03-29T07:22:43.839Z,6.00
2023-03-29T07:25:12.598Z,6.00
2023-03-29T07:27:42.182Z,6.57
2023-03-29T07:30:12.348Z,5.53
2023-03-29T07:32:41.039Z,5.63
2023-03-29T07:35:08.695Z,6.30
2023-03-29T07:37:37.405Z,5.60
2023-03-29T07:40:18.664Z,5.70
2023-03-29T07:42:46.752Z,5.83
2023-03-29T07:45:14.597Z,5.80
2023-03-29T07:47:41.561Z,5.60
2023-03-29T07:50:09.592Z,5.43
2023-03-29T07:52:38.206Z,5.50
2023-03-29T07:55:06.516Z,5.63
2023-03-29T07:57:33.001Z,5.27
2023-03-29T07:59:59.729Z,5.57
2023-03-29T08:02:27.228Z,5.00
2023-03-29T08:04:54.493Z,5.17
2023-03-29T08:07:21.395Z,5.40
2023-03-29T08:09:48.573Z,5.47
2023-03-29T08:12:15.139Z,5.30
2023-03-29T08:14:41.623Z,5.93
2023-03-29T08:17:08.144Z,5.00
2023-03-29T08:19:34.560Z,5.40
2023-03-29T08:22:01.122Z,5.77
2023-03-29T08:24:28.560Z,5.37
2023-03-29T08:26:54.925Z,5.10
2023-03-29T08:29:22.332Z,5.37
2023-03-29T08:31:49.278Z,5.23
2023-03-29T08:34:16.193Z,5.20
2023-03-29T08:36:42.688Z,4.70
2023-03-29T08:39:10.026Z,5.23
2023-03-29T08:41:36.769Z,5.47
2023-03-29T08:44:41.675Z,5.43
2023-03-29T08:47:17.409Z,5.33
2023-03-29T08:49:48.660Z,5.47
2023-03-29T08:52:23.688Z,5.73
2023-03-29T08:54:52.727Z,5.07
2023-03-29T08:57:23.012Z,5.80
2023-03-29T08:59:51.738Z,5.67
2023-03-29T09:02:23.346Z,5.67
2023-03-29T09:04:50.838Z,5.53
2023-03-29T09:07:17.741Z,5.87
2023-03-29T09:09:44.382Z,6.17
2023-03-29T09:12:13.836Z,6.40
2023-03-29T09:14:59.204Z,6.10
2023-03-29T09:17:31.055Z,6.23
2023-03-29T09:20:20.410Z,6.70
2023-03-29T09:22:47.102Z,6.30
2023-03-29T09:25:54.156Z,6.93
2023-03-29T09:28:34.791Z,6.20
2023-03-29T09:31:16.706Z,6.43
2023-03-29T09:34:14.457Z,6.27
2023-03-29T09:36:54.962Z,5.80
2023-03-29T09:39:23.127Z,6.47
2023-03-29T09:41:56.995Z,6.17
2023-03-29T09:44:31.155Z,6.33
2023-03-29T09:47:07.724Z,6.30
2023-03-29T09:49:40.574Z,5.87
2023-03-29T09:52:12.295Z,5.80
2023-03-29T09:54:38.690Z,5.63
2023-03-29T09:57:05.216Z,6.23
2023-03-29T09:59:32.110Z,6.47
2023-03-29T10:02:10.191Z,5.70
2023-03-29T10:04:37.156Z,6.20
2023-03-29T10:07:04.732Z,6.50
2023-03-29T10:09:32.512Z,5.60
2023-03-29T10:12:03.501Z,6.33
2023-03-29T10:14:44.707Z,6.10
2023-03-29T10:17:16.852Z,6.40
2023-03-29T10:19:53.131Z,5.87
2023-03-29T10:22:23.830Z,6.40
2023-03-29T10:24:52.097Z,6.37
2023-03-29T10:27:27.349Z,6.37
2023-03-29T10:29:54.705Z,5.87
2023-03-29T10:32:35.425Z,5.93
2023-03-29T10:35:23.662Z,6.67
2023-03-29T10:37:52.036Z,6.60
2023-03-29T10:40:33.736Z,6.53
2023-03-29T10:43:19.491Z,6.20
2023-03-29T10:45:52.083Z,6.10
2023-03-29T10:48:19.400Z,7.03
2023-03-29T10:50:52.936Z,6.47
2023-03-29T10:53:26.225Z,6.53
2023-03-29T10:56:07.889Z,7.93
2023-03-29T10:58:56.860Z,6.13
2023-03-29T11:01:57.533Z,7.27
2023-03-29T11:04:48.900Z,5.27
2023-03-29T11:07:26.223Z,6.63
2023-03-29T11:09:59.447Z,6.53
2023-03-29T11:12:41.099Z,6.37
2023-03-29T11:15:11.175Z,7.00
2023-03-29T11:17:47.089Z,6.50
2023-03-29T11:20:22.373Z,6.53
2023-03-29T11:23:21.294Z,6.60
2023-03-29T11:26:00.266Z,7.27
2023-03-29T11:28:49.476Z,6.67
2023-03-29T11:31:26.750Z,7.03
2023-03-29T11:34:15.590Z,6.30
2023-03-29T11:36:50.450Z,7.03
2023-03-29T11:39:45.130Z,7.83
2023-03-29T11:42:21.591Z,6.57
2023-03-29T11:44:54.641Z,7.70
2023-03-29T11:47:23.097Z,7.40
2023-03-29T11:50:13.787Z,7.57
2023-03-29T11:52:45.060Z,8.47
2023-03-29T11:55:14.441Z,7.53
2023-03-29T11:57:45.460Z,7.93
2023-03-29T12:00:22.256Z,9.03
2023-03-29T12:03:11.164Z,9.07
2023-03-29T12:05:45.572Z,8.40
2023-03-29T12:08:18.856Z,8.67
2023-03-29T12:10:50.105Z,8.73
2023-03-29T12:13:27.254Z,8.93
2023-03-29T12:16:06.020Z,8.00
2023-03-29T12:18:42.374Z,8.73
2023-03-29T12:21:13.382Z,9.37
2023-03-29T12:23:42.280Z,9.10
2023-03-29T12:26:17.142Z,8.97
2023-03-29T12:29:07.140Z,9.60
2023-03-29T12:31:59.006Z,7.87
2023-03-29T12:34:30.916Z,9.33
2023-03-29T12:37:19.303Z,9.77
2023-03-29T12:39:45.926Z,9.60
2023-03-29T12:42:16.429Z,8.97
2023-03-29T12:45:12.695Z,10.10
2023-03-29T12:47:43.892Z,9.90
2023-03-29T12:50:31.557Z,10.63
2023-03-29T12:53:13.290Z,9.73
2023-03-29T12:55:42.717Z,9.80
2023-03-29T12:58:28.307Z,10.03
2023-03-29T13:01:21.425Z,11.27
2023-03-29T13:03:52.396Z,11.23
2023-03-29T13:06:30.364Z,11.70
2023-03-29T13:09:20.358Z,10.63
2023-03-29T13:11:52.911Z,11.10
2023-03-29T13:14:20.622Z,10.37
2023-03-29T13:16:47.657Z,9.80
2023-03-29T13:19:27.213Z,10.97
2023-03-29T13:22:10.063Z,10.30
2023-03-29T13:24:47.145Z,11.03
2023-03-29T13:27:32.101Z,11.50
2023-03-29T13:30:33.328Z,11.27
2023-03-29T13:33:22.745Z,10.97
2023-03-29T13:35:58.434Z,12.10
2023-03-29T13:38:30.983Z,11.90
2023-03-29T13:41:04.309Z,11.90
2023-03-29T13:43:51.441Z,11.70
2023-03-29T13:46:22.925Z,11.93
2023-03-29T13:48:58.139Z,13.60
2023-03-29T13:51:34.187Z,13.20
2023-03-29T13:54:28.651Z,15.17
2023-03-29T13:57:02.834Z,14.60
2023-03-29T13:59:45.154Z,14.27
2023-03-29T14:02:20.327Z,15.70
2023-03-29T14:04:48.552Z,14.73
2023-03-29T14:07:15.759Z,14.77
2023-03-29T14:09:45.166Z,15.57
2023-03-29T14:12:14.081Z,15.30
2023-03-29T14:14:57.680Z,15.27
2023-03-29T14:17:25.669Z,15.20
2023-03-29T14:19:53.091Z,15.73
2023-03-29T14:22:20.721Z,16.07
2023-03-29T14:24:51.821Z,16.00
2023-03-29T14:27:19.120Z,15.33
2023-03-29T14:29:47.785Z,14.43
2023-03-29T14:32:16.808Z,14.27
2023-03-29T14:34:47.411Z,14.40
2023-03-29T14:37:18.741Z,14.10
2023-03-29T14:39:45.889Z,12.40
2023-03-29T14:42:17.300Z,13.60
2023-03-29T14:44:44.850Z,13.20
2023-03-29T14:47:18.234Z,13.13
2023-03-29T14:49:45.108Z,12.67
2023-03-29T14:52:13.325Z,13.10
2023-03-29T14:54:45.085Z,13.63
2023-03-29T14:57:16.545Z,12.13
2023-03-29T14:59:43.426Z,11.73
2023-03-29T15:02:23.505Z,12.80
2023-03-29T15:05:03.485Z,11.70
2023-03-29T15:07:31.455Z,12.40
2023-03-29T15:09:59.736Z,11.77
2023-03-29T15:12:29.645Z,11.63
2023-03-29T15:14:56.374Z,11.53
2023-03-29T15:17:39.415Z,11.07
2023-03-29T15:20:23.165Z,12.40
2023-03-29T15:23:08.061Z,12.57
2023-03-29T15:25:45.607Z,13.47
2023-03-29T15:28:28.248Z,13.77
2023-03-29T15:33:42.155Z,12.90
2023-03-29T15:36:10.837Z,16.07
2023-03-29T15:38:44.052Z,14.90
2023-03-29T15:41:13.454Z,14.00
2023-03-29T15:43:41.205Z,17.60
2023-03-29T15:46:08.121Z,16.13
2023-03-29T15:48:34.967Z,13.53
2023-03-29T15:51:05.471Z,11.63
2023-03-29T15:53:32.846Z,12.30
2023-03-29T15:56:01.573Z,12.63
2023-03-29T15:58:31.026Z,12.57
2023-03-29T16:01:02.494Z,12.43
2023-03-29T16:03:32.724Z,11.37
2023-03-29T16:05:59.303Z,11.83
2023-03-29T16:08:25.791Z,12.10
2023-03-29T16:10:52.248Z,11.60
2023-03-29T16:13:18.814Z,11.20
2023-03-29T16:15:46.038Z,10.70
2023-03-29T16:18:12.626Z,10.87
2023-03-29T16:20:39.329Z,10.83
2023-03-29T16:23:09.744Z,10.73
2023-03-29T16:25:38.486Z,10.67
2023-03-29T16:28:06.351Z,10.20
2023-03-29T16:30:33.728Z,9.87
2023-03-29T16:33:01.188Z,10.63
2023-03-29T16:35:31.310Z,10.47
2023-03-29T16:37:57.979Z,9.70
2023-03-29T16:40:24.886Z,10.70
2023-03-29T16:42:51.721Z,12.20
2023-03-29T16:45:19.427Z,13.43
2023-03-29T16:47:46.463Z,16.10
2023-03-29T16:50:15.269Z,14.83
2023-03-29T16:52:42.012Z,12.80
2023-03-29T16:55:12.104Z,14.47
2023-03-29T16:57:40.120Z,12.90
2023-03-29T17:00:08.872Z,14.53
2023-03-29T17:02:35.931Z,14.50
2023-03-29T17:05:02.762Z,13.57
2023-03-29T17:07:29.635Z,14.80
2023-03-29T17:09:56.393Z,14.20
2023-03-29T17:12:23.228Z,13.87
2023-03-29T17:14:50.009Z,14.67
2023-03-29T17:17:16.834Z,13.93
2023-03-29T17:19:43.348Z,14.30
2023-03-29T17:22:09.797Z,15.60
2023-03-29T17:24:36.203Z,14.77
2023-03-29T17:27:02.958Z,15.10
2023-03-29T17:29:29.585Z,15.20
2023-03-29T17:31:56.022Z,14.90
2023-03-29T17:34:22.763Z,15.17
2023-03-29T17:36:53.185Z,15.27
2023-03-29T17:39:20.018Z,16.33
2023-03-29T17:41:47.651Z,16.30
2023-03-29T17:44:14.358Z,15.53
2023-03-29T17:46:41.480Z,16.60
2023-03-29T17:49:07.936Z,16.90
2023-03-29T17:51:34.794Z,17.63
2023-03-29T17:54:01.741Z,15.73
2023-03-29T17:56:28.325Z,16.10
2023-03-29T17:58:55.021Z,16.17
2023-03-29T18:01:22.088Z,16.70
2023-03-29T18:03:49.255Z,17.17
2023-03-29T18:06:19.377Z,17.37
2023-03-29T18:08:47.507Z,16.37
2023-03-29T18:11:18.097Z,16.50
2023-03-29T18:13:45.664Z,17.97
2023-03-29T18:16:12.411Z,17.20
2023-03-29T18:18:38.878Z,16.50
2023-03-29T18:21:07.101Z,15.70
2023-03-29T18:23:33.956Z,16.37
2023-03-29T18:26:02.905Z,16.27
2023-03-29T18:28:30.653Z,15.93
2023-03-29T18:30:57.225Z,15.80
2023-03-29T18:33:23.966Z,16.00
2023-03-29T18:35:51.370Z,16.17
2023-03-29T18:38:18.799Z,15.57
2023-03-29T18:40:50.144Z,16.00
2023-03-29T18:43:16.906Z,15.63
2023-03-29T18:45:44.064Z,16.47
2023-03-29T18:48:11.182Z,15.40
2023-03-29T18:50:38.844Z,16.10
2023-03-29T18:53:05.485Z,15.37
2023-03-29T18:55:32.112Z,16.07
2023-03-29T18:57:58.635Z,15.60
2023-03-29T19:00:25.337Z,16.00
2023-03-29T19:02:52.105Z,15.50
2023-03-29T19:05:18.763Z,15.50
2023-03-29T19:07:45.419Z,14.90
2023-03-29T19:10:12.180Z,15.93
2023-03-29T19:12:38.936Z,15.10
2023-03-29T19:15:06.120Z,16.07
2023-03-29T19:17:32.703Z,14.77
2023-03-29T19:19:59.282Z,14.90
2023-03-29T19:22:26.545Z,15.33
2023-03-29T19:24:53.077Z,14.50
2023-03-29T19:27:19.731Z,14.63
2023-03-29T19:29:46.577Z,14.63
2023-03-29T19:32:12.963Z,14.37
2023-03-29T19:34:39.556Z,14.37
2023-03-29T19:37:06.424Z,14.37
2023-03-29T19:39:33.077Z,13.97
2023-03-29T19:41:59.699Z,14.47
2023-03-29T19:44:28.048Z,13.83
2023-03-29T19:46:54.541Z,14.17
2023-03-29T19:49:20.966Z,14.37
2023-03-29T19:51:48.022Z,14.60
2023-03-29T19:54:14.632Z,14.47
2023-03-29T19:56:42.916Z,14.70
2023-03-29T19:59:11.257Z,14.80
2023-03-29T20:01:39.209Z,14.63
2023-03-29T20:04:05.992Z,15.27
2023-03-29T20:06:32.468Z,15.30
2023-03-29T20:08:58.916Z,13.90
2023-03-29T20:11:25.560Z,13.73
2023-03-29T20:13:51.996Z,13.73
2023-03-29T20:16:19.156Z,14.57
2023-03-29T20:18:45.729Z,13.47
2023-03-29T20:21:14.101Z,14.63
2023-03-29T20:23:41.155Z,13.60
2023-03-29T20:26:08.403Z,12.77
2023-03-29T20:28:34.875Z,12.83
2023-03-29T20:31:06.414Z,13.27
2023-03-29T20:33:33.343Z,13.07
2023-03-29T20:36:00.354Z,12.63
2023-03-29T20:38:26.946Z,12.63
2023-03-29T20:40:53.600Z,12.80
2023-03-29T20:43:20.186Z,12.90
2023-03-29T20:45:52.723Z,13.83
2023-03-29T20:48:23.294Z,12.77
2023-03-29T20:50:50.465Z,13.33
2023-03-29T20:53:18.087Z,12.70
2023-03-29T20:55:44.740Z,13.00
2023-03-29T20:58:11.540Z,13.00
2023-03-29T21:00:38.255Z,12.97
2023-03-29T21:03:04.944Z,13.03
2023-03-29T21:05:32.923Z,13.57
2023-03-29T21:07:59.714Z,14.07
2023-03-29T21:10:27.542Z,14.20
2023-03-29T21:12:54.653Z,13.40
2023-03-29T21:15:21.461Z,13.70
2023-03-29T21:17:47.986Z,13.20
2023-03-29T21:20:15.473Z,13.57
2023-03-29T21:22:45.074Z,12.83
2023-03-29T21:25:14.553Z,13.10
2023-03-29T21:27:41.605Z,13.20
2023-03-29T21:30:09.296Z,13.10
2023-03-29T21:32:36.087Z,13.50
2023-03-29T21:35:02.600Z,13.20
2023-03-29T21:37:29.351Z,13.37
2023-03-29T21:39:55.904Z,12.93
2023-03-29T21:42:22.540Z,12.33
2023-03-29T21:44:49.044Z,12.77
2023-03-29T21:47:15.482Z,13.03
2023-03-29T21:49:41.887Z,12.50
2023-03-29T21:52:08.409Z,13.00
2023-03-29T21:54:34.895Z,12.60
2023-03-29T21:57:01.545Z,13.00
2023-03-29T21:59:28.148Z,13.40
2023-03-29T22:01:55.378Z,12.87
2023-03-29T22:04:35.367Z,12.60
2023-03-29T22:07:03.990Z,12.07
2023-03-29T22:09:32.317Z,12.07
2023-03-29T22:11:59.758Z,11.93
2023-03-29T22:14:28.484Z,12.23
2023-03-29T22:16:55.202Z,12.30
2023-03-29T22:19:21.829Z,12.80
2023-03-29T22:21:48.712Z,12.63
2023-03-29T22:24:16.495Z,12.60
2023-03-29T22:26:44.950Z,12.57
2023-03-29T22:29:12.173Z,12.00
2023-03-29T22:31:39.378Z,12.20
2023-03-29T22:34:06.615Z,12.10
2023-03-29T22:36:33.477Z,12.47
2023-03-29T22:39:00.049Z,12.30
2023-03-29T22:41:28.150Z,11.73
2023-03-29T22:43:56.648Z,11.67
2023-03-29T22:46:23.621Z,12.13
2023-03-29T22:48:50.262Z,12.30
2023-03-29T22:51:17.368Z,11.80
2023-03-29T22:53:44.593Z,12.57
2023-03-29T22:56:11.066Z,12.17
2023-03-29T22:58:37.835Z,11.30
2023-03-29T23:01:05.853Z,12.23
2023-03-29T23:03:33.365Z,11.40
2023-03-29T23:06:03.731Z,11.80
2023-03-29T23:08:32.302Z,11.80
2023-03-29T23:10:58.882Z,11.43
2023-03-29T23:13:33.371Z,11.80
2023-03-29T23:16:01.555Z,10.57
2023-03-29T23:18:30.422Z,11.70
2023-03-29T23:20:58.213Z,11.40
2023-03-29T23:23:26.762Z,10.83
2023-03-29T23:25:54.394Z,10.80
2023-03-29T23:28:25.656Z,11.03
2023-03-29T23:30:56.147Z,10.73
2023-03-29T23:33:26.701Z,10.83
2023-03-29T23:35:54.492Z,10.93
2023-03-29T23:38:21.584Z,10.40
2023-03-29T23:40:58.632Z,10.93
2023-03-29T23:43:32.739Z,10.07
2023-03-29T23:46:05.606Z,10.23
2023-03-29T23:48:35.199Z,10.17
2023-03-29T23:51:02.933Z,10.37
2023-03-29T23:53:30.649Z,10.73
2023-03-29T23:55:58.438Z,10.63
2023-03-29T23:58:24.929Z,10.50
